createdAt,value
2022-09-22T00:01:22.947Z,8.80
2022-09-22T00:03:54.420Z,8.80
2022-09-22T00:06:27.448Z,8.90
2022-09-22T00:09:00.813Z,8.80
2022-09-22T00:11:36.409Z,8.70
2022-09-22T00:14:11.547Z,8.60
2022-09-22T00:16:45.156Z,8.70
2022-09-22T00:19:21.789Z,8.70
2022-09-22T00:21:49.483Z,8.70
2022-09-22T00:24:19.540Z,8.70
2022-09-22T00:26:46.676Z,8.70
2022-09-22T00:29:13.831Z,8.70
2022-09-22T00:31:42.124Z,8.60
2022-09-22T00:34:20.353Z,8.60
2022-09-22T00:36:48.330Z,8.60
2022-09-22T00:39:16.756Z,8.50
2022-09-22T00:41:46.984Z,8.60
2022-09-22T00:44:38.628Z,8.60
2022-09-22T00:47:31.014Z,8.60
2022-09-22T00:50:22.437Z,8.60
2022-09-22T00:52:54.243Z,8.60
2022-09-22T00:55:33.632Z,8.70
2022-09-22T00:58:02.643Z,8.70
2022-09-22T01:00:29.834Z,8.70
2022-09-22T01:02:59.304Z,8.70
2022-09-22T01:05:31.690Z,8.60
2022-09-22T01:07:58.833Z,8.70
2022-09-22T01:10:27.389Z,8.60
2022-09-22T01:13:22.724Z,8.60
2022-09-22T01:16:10.739Z,8.60
2022-09-22T01:18:52.095Z,8.50
2022-09-22T01:21:27.558Z,8.50
2022-09-22T01:24:13.814Z,8.50
2022-09-22T01:27:19.945Z,8.50
2022-09-22T01:30:04.959Z,8.50
2022-09-22T01:32:38.147Z,8.50
2022-09-22T01:35:29.454Z,8.50
2022-09-22T01:38:13.391Z,8.50
2022-09-22T01:40:48.882Z,8.50
2022-09-22T01:43:28.800Z,8.40
2022-09-22T01:45:55.986Z,8.40
2022-09-22T01:48:32.111Z,8.40
2022-09-22T01:51:10.489Z,8.40
2022-09-22T01:53:44.222Z,8.40
2022-09-22T01:56:14.564Z,8.40
2022-09-22T01:59:00.103Z,8.40
2022-09-22T02:01:38.250Z,8.40
2022-09-22T02:04:16.147Z,8.40
2022-09-22T02:07:08.858Z,8.40
2022-09-22T02:09:39.146Z,8.30
2022-09-22T02:12:06.167Z,8.30
2022-09-22T02:14:33.364Z,8.30
2022-09-22T02:17:01.041Z,8.20
2022-09-22T02:19:33.516Z,8.20
2022-09-22T02:22:01.008Z,8.20
2022-09-22T02:24:38.679Z,8.10
2022-09-22T02:27:13.836Z,8.00
2022-09-22T02:29:51.966Z,8.10
2022-09-22T02:32:20.883Z,8.00
2022-09-22T02:34:48.640Z,8.00
2022-09-22T02:37:32.564Z,7.90
2022-09-22T02:40:11.708Z,7.90
2022-09-22T02:42:53.329Z,8.00
2022-09-22T02:45:31.398Z,8.00
2022-09-22T02:48:06.390Z,8.00
2022-09-22T02:50:34.356Z,8.00
2022-09-22T02:53:14.191Z,8.10
2022-09-22T02:55:41.955Z,8.10
2022-09-22T02:58:08.863Z,8.20
2022-09-22T03:00:37.641Z,8.10
2022-09-22T03:03:05.017Z,8.10
2022-09-22T03:05:31.938Z,8.00
2022-09-22T03:07:59.789Z,8.00
2022-09-22T03:10:26.677Z,8.10
2022-09-22T03:13:15.090Z,8.10
2022-09-22T03:15:41.060Z,8.00
2022-09-22T03:18:07.998Z,8.00
2022-09-22T03:20:34.905Z,8.00
2022-09-22T03:23:01.955Z,8.00
2022-09-22T03:25:28.867Z,8.00
2022-09-22T03:27:55.742Z,8.00
2022-09-22T03:30:22.877Z,7.90
2022-09-22T03:32:49.929Z,7.90
2022-09-22T03:35:17.009Z,7.90
2022-09-22T03:37:45.650Z,7.80
2022-09-22T03:40:12.717Z,7.80
2022-09-22T03:42:39.699Z,7.90
2022-09-22T03:45:07.046Z,7.90
2022-09-22T03:47:34.038Z,7.80
2022-09-22T03:50:01.095Z,7.80
2022-09-22T03:52:28.093Z,7.80
2022-09-22T03:54:55.416Z,7.80
2022-09-22T03:57:22.523Z,7.80
2022-09-22T03:59:49.857Z,7.80
2022-09-22T04:02:17.113Z,7.90
2022-09-22T04:04:44.456Z,7.80
2022-09-22T04:07:11.684Z,7.90
2022-09-22T04:09:38.733Z,7.80
2022-09-22T04:12:05.830Z,7.70
2022-09-22T04:14:32.987Z,7.70
2022-09-22T04:16:59.976Z,7.70
2022-09-22T04:19:26.900Z,7.70
2022-09-22T04:21:57.212Z,7.60
2022-09-22T04:24:24.739Z,7.60
2022-09-22T04:27:15.610Z,7.60
2022-09-22T04:29:39.139Z,7.50
2022-09-22T04:32:06.310Z,7.70
2022-09-22T04:34:33.458Z,7.80
2022-09-22T04:37:00.990Z,7.80
2022-09-22T04:39:28.884Z,7.80
2022-09-22T04:41:56.368Z,7.80
2022-09-22T04:44:24.053Z,7.70
2022-09-22T04:46:51.020Z,7.70
2022-09-22T04:49:18.580Z,7.70
2022-09-22T04:51:45.802Z,7.70
2022-09-22T04:54:14.868Z,7.60
2022-09-22T04:56:44.708Z,7.60
2022-09-22T04:59:12.308Z,7.70
2022-09-22T05:01:39.409Z,7.70
2022-09-22T05:04:06.586Z,7.70
2022-09-22T05:06:33.677Z,7.60
2022-09-22T05:09:00.778Z,7.70
2022-09-22T05:11:28.469Z,7.70
2022-09-22T05:13:57.405Z,7.80
2022-09-22T05:16:24.804Z,7.80
2022-09-22T05:18:51.780Z,7.80
2022-09-22T05:21:21.763Z,7.80
2022-09-22T05:23:48.799Z,7.80
2022-09-22T05:26:15.990Z,7.90
2022-09-22T05:28:43.254Z,7.90
2022-09-22T05:31:10.300Z,7.90
2022-09-22T05:33:37.450Z,7.90
2022-09-22T05:36:04.742Z,8.00
2022-09-22T05:38:31.732Z,8.00
2022-09-22T05:40:59.060Z,8.20
2022-09-22T05:43:26.354Z,8.30
2022-09-22T05:45:53.313Z,8.30
2022-09-22T05:48:20.390Z,8.40
2022-09-22T05:50:47.885Z,8.40
2022-09-22T05:53:14.827Z,8.50
2022-09-22T05:55:42.146Z,9.80
2022-09-22T05:58:13.009Z,11.00
2022-09-22T06:00:41.145Z,12.10
2022-09-22T06:03:08.658Z,12.00
2022-09-22T06:05:38.453Z,12.00
2022-09-22T06:08:06.910Z,12.30
2022-09-22T06:10:36.556Z,12.70
2022-09-22T06:13:08.963Z,12.70
2022-09-22T06:15:36.545Z,13.30
2022-09-22T06:18:07.599Z,14.40
2022-09-22T06:20:38.135Z,14.30
2022-09-22T06:23:05.156Z,13.80
2022-09-22T06:25:32.680Z,13.60
2022-09-22T06:28:02.402Z,13.20
2022-09-22T06:30:31.170Z,12.90
2022-09-22T06:32:58.789Z,13.30
2022-09-22T06:35:26.067Z,14.00
2022-09-22T06:37:57.253Z,14.50
2022-09-22T06:40:26.433Z,14.40
2022-09-22T06:42:58.643Z,14.90
2022-09-22T06:45:26.981Z,15.10
2022-09-22T06:48:07.507Z,14.80
2022-09-22T06:50:36.947Z,15.20
2022-09-22T06:53:07.440Z,15.60
2022-09-22T06:55:36.111Z,16.10
2022-09-22T06:58:03.418Z,15.80
2022-09-22T07:00:33.375Z,15.80
2022-09-22T07:03:05.327Z,15.70
2022-09-22T07:05:32.853Z,15.50
2022-09-22T07:07:59.837Z,15.90
2022-09-22T07:10:27.173Z,16.20
2022-09-22T07:12:54.740Z,15.90
2022-09-22T07:15:22.199Z,16.70
2022-09-22T07:17:53.019Z,17.20
2022-09-22T07:20:23.509Z,16.40
2022-09-22T07:22:50.821Z,16.00
2022-09-22T07:25:17.725Z,16.30
2022-09-22T07:27:44.898Z,16.40
2022-09-22T07:30:14.116Z,16.00
2022-09-22T07:32:41.106Z,16.70
2022-09-22T07:35:08.407Z,17.20
2022-09-22T07:37:36.085Z,17.50
2022-09-22T07:40:03.657Z,17.30
2022-09-22T07:42:30.827Z,17.30
2022-09-22T07:45:13.134Z,17.70
2022-09-22T07:47:58.666Z,17.40
2022-09-22T07:50:25.705Z,18.10
2022-09-22T07:52:54.003Z,17.10
2022-09-22T07:55:24.422Z,17.30
2022-09-22T07:57:59.646Z,17.40
2022-09-22T08:00:34.721Z,16.90
2022-09-22T08:03:02.131Z,17.30
2022-09-22T08:05:29.595Z,17.90
2022-09-22T08:07:58.581Z,18.00
2022-09-22T08:10:26.641Z,17.60
2022-09-22T08:12:54.740Z,16.40
2022-09-22T08:15:26.881Z,15.70
2022-09-22T08:18:02.598Z,16.30
2022-09-22T08:20:30.222Z,15.80
2022-09-22T08:22:58.271Z,15.60
2022-09-22T08:25:26.653Z,15.30
2022-09-22T08:27:54.563Z,15.30
2022-09-22T08:30:21.715Z,15.10
2022-09-22T08:32:48.855Z,14.90
2022-09-22T08:35:16.083Z,15.00
2022-09-22T08:37:44.147Z,15.40
2022-09-22T08:40:21.357Z,15.40
2022-09-22T08:42:48.580Z,15.50
2022-09-22T08:45:28.867Z,15.30
2022-09-22T08:48:22.234Z,15.50
2022-09-22T08:51:08.849Z,15.50
2022-09-22T08:53:43.642Z,15.50
2022-09-22T08:56:33.305Z,15.50
2022-09-22T08:59:13.236Z,15.60
2022-09-22T09:01:46.618Z,15.60
2022-09-22T09:04:35.303Z,15.20
2022-09-22T09:07:31.315Z,15.00
2022-09-22T09:10:25.428Z,15.10
2022-09-22T09:13:12.720Z,15.20
2022-09-22T09:16:02.230Z,15.20
2022-09-22T09:18:37.362Z,15.00
2022-09-22T09:21:10.812Z,14.90
2022-09-22T09:26:39.413Z,14.90
2022-09-22T09:29:13.562Z,14.90
2022-09-22T09:31:47.335Z,14.90
2022-09-22T09:34:18.127Z,14.80
2022-09-22T09:37:07.733Z,14.70
2022-09-22T09:39:39.977Z,14.60
2022-09-22T09:42:24.874Z,14.40
2022-09-22T09:44:53.804Z,14.40
2022-09-22T09:47:41.337Z,14.40
2022-09-22T09:50:11.410Z,14.40
2022-09-22T09:52:39.235Z,14.40
2022-09-22T09:55:26.692Z,14.30
2022-09-22T09:58:03.821Z,14.30
2022-09-22T10:00:32.152Z,14.40
2022-09-22T10:03:26.750Z,14.40
2022-09-22T10:06:07.347Z,14.50
2022-09-22T10:08:45.931Z,14.40
2022-09-22T10:11:15.443Z,14.50
2022-09-22T10:13:44.092Z,14.50
2022-09-22T10:16:25.160Z,14.50
2022-09-22T10:19:22.836Z,14.50
2022-09-22T10:21:50.389Z,14.50
2022-09-22T10:24:33.229Z,14.50
2022-09-22T10:27:02.570Z,14.60
2022-09-22T10:29:32.585Z,14.70
2022-09-22T10:32:02.319Z,14.80
2022-09-22T10:34:38.484Z,14.80
2022-09-22T10:37:10.756Z,14.80
2022-09-22T10:40:02.011Z,14.80
2022-09-22T10:42:44.161Z,14.80
2022-09-22T10:45:15.405Z,14.90
2022-09-22T10:51:24.870Z,14.80
2022-09-22T10:54:07.077Z,14.70
2022-09-22T10:56:43.631Z,14.60
2022-09-22T10:59:35.049Z,14.70
2022-09-22T11:02:02.182Z,14.80
2022-09-22T11:04:54.608Z,14.80
2022-09-22T11:08:11.553Z,14.90
2022-09-22T11:10:59.738Z,14.90
2022-09-22T11:13:45.394Z,15.00
2022-09-22T11:16:34.338Z,15.00
2022-09-22T11:19:48.909Z,14.90
2022-09-22T11:22:49.147Z,15.00
2022-09-22T11:25:31.238Z,15.00
2022-09-22T11:28:42.706Z,14.90
2022-09-22T11:31:31.170Z,14.90
2022-09-22T11:34:23.476Z,14.90
2022-09-22T11:37:25.776Z,14.90
2022-09-22T11:40:37.208Z,14.80
2022-09-22T11:43:06.940Z,14.80
2022-09-22T11:45:47.534Z,14.90
2022-09-22T11:48:27.885Z,14.90
2022-09-22T11:51:28.822Z,15.10
2022-09-22T11:54:37.148Z,15.10
2022-09-22T11:57:08.826Z,15.20
2022-09-22T12:00:09.134Z,15.20
2022-09-22T12:02:46.868Z,15.30
2022-09-22T12:05:22.016Z,15.40
2022-09-22T12:08:00.527Z,15.50
2022-09-22T12:10:35.495Z,15.50
2022-09-22T12:13:05.588Z,15.70
2022-09-22T12:15:58.779Z,15.70
2022-09-22T12:18:46.546Z,15.80
2022-09-22T12:21:55.736Z,15.80
2022-09-22T12:24:23.239Z,16.00
2022-09-22T12:26:52.254Z,15.90
2022-09-22T12:29:28.167Z,16.50
2022-09-22T12:31:59.594Z,17.30
2022-09-22T12:34:33.175Z,18.00
2022-09-22T12:37:29.752Z,18.50
2022-09-22T12:40:04.933Z,19.00
2022-09-22T12:42:34.838Z,19.40
2022-09-22T12:45:21.227Z,19.60
2022-09-22T12:47:54.915Z,19.70
2022-09-22T12:50:24.951Z,19.70
2022-09-22T12:52:51.817Z,19.90
2022-09-22T12:55:40.167Z,20.10
2022-09-22T12:58:19.524Z,19.90
2022-09-22T13:00:50.628Z,19.90
2022-09-22T13:03:26.623Z,20.10
2022-09-22T13:05:59.578Z,20.20
2022-09-22T13:08:33.208Z,19.60
2022-09-22T13:11:05.973Z,19.70
2022-09-22T13:13:42.194Z,19.60
2022-09-22T13:16:15.185Z,20.10
2022-09-22T13:18:53.211Z,19.10
2022-09-22T13:21:25.907Z,18.30
2022-09-22T13:23:55.679Z,18.40
2022-09-22T13:26:29.078Z,18.10
2022-09-22T13:29:06.014Z,18.00
2022-09-22T13:31:42.072Z,17.30
2022-09-22T13:34:20.203Z,17.50
2022-09-22T13:36:48.546Z,17.40
2022-09-22T13:39:19.311Z,17.20
2022-09-22T13:41:56.996Z,17.20
2022-09-22T13:44:31.480Z,16.90
2022-09-22T13:47:03.140Z,16.90
2022-09-22T13:49:39.381Z,16.80
2022-09-22T13:52:09.659Z,16.80
2022-09-22T13:54:39.058Z,16.60
2022-09-22T13:57:16.662Z,16.60
2022-09-22T13:59:46.759Z,16.50
2022-09-22T14:02:14.582Z,16.50
2022-09-22T14:04:53.210Z,16.50
2022-09-22T14:07:22.315Z,16.40
2022-09-22T14:09:50.070Z,16.40
2022-09-22T14:12:17.828Z,16.30
2022-09-22T14:14:45.002Z,16.20
2022-09-22T14:17:25.447Z,16.20
2022-09-22T14:20:06.033Z,16.20
2022-09-22T14:22:39.986Z,16.20
2022-09-22T14:25:21.223Z,16.20
2022-09-22T14:27:55.715Z,16.20
2022-09-22T14:30:31.134Z,16.20
2022-09-22T14:33:04.055Z,16.20
2022-09-22T14:35:32.228Z,16.20
2022-09-22T14:38:16.378Z,16.30
2022-09-22T14:40:54.769Z,16.20
2022-09-22T14:43:37.194Z,16.20
2022-09-22T14:46:34.061Z,16.20
2022-09-22T14:49:40.995Z,16.20
2022-09-22T14:52:24.289Z,16.20
2022-09-22T14:54:52.786Z,16.20
2022-09-22T14:57:20.538Z,16.10
2022-09-22T15:00:14.085Z,16.10
2022-09-22T15:02:44.594Z,16.00
2022-09-22T15:05:27.547Z,16.00
2022-09-22T15:07:57.669Z,16.00
2022-09-22T15:10:30.386Z,16.10
2022-09-22T15:13:28.173Z,16.00
2022-09-22T15:15:55.939Z,16.00
2022-09-22T15:18:26.235Z,15.90
2022-09-22T15:20:59.923Z,15.90
2022-09-22T15:23:44.833Z,15.90
2022-09-22T15:26:24.703Z,15.90
2022-09-22T15:28:54.262Z,15.80
2022-09-22T15:31:28.598Z,15.80
2022-09-22T15:34:01.700Z,15.80
2022-09-22T15:36:33.250Z,15.70
2022-09-22T15:39:19.285Z,15.70
2022-09-22T15:41:48.595Z,15.70
2022-09-22T15:44:16.659Z,15.70
2022-09-22T15:46:50.536Z,15.60
2022-09-22T15:49:22.601Z,15.60
2022-09-22T15:51:50.110Z,15.60
2022-09-22T15:54:20.106Z,15.50
2022-09-22T15:56:48.813Z,15.50
2022-09-22T15:59:28.489Z,15.50
2022-09-22T16:01:57.221Z,15.40
2022-09-22T16:04:24.732Z,15.40
2022-09-22T16:06:58.828Z,15.40
2022-09-22T16:09:25.922Z,15.30
2022-09-22T16:11:54.014Z,15.20
2022-09-22T16:14:23.026Z,15.20
2022-09-22T16:16:50.162Z,15.20
2022-09-22T16:19:17.282Z,15.10
2022-09-22T16:21:52.249Z,15.10
2022-09-22T16:24:19.561Z,15.10
2022-09-22T16:26:46.565Z,15.00
2022-09-22T16:29:13.856Z,15.00
2022-09-22T16:31:40.790Z,14.80
2022-09-22T16:34:09.165Z,14.80
2022-09-22T16:36:37.263Z,14.70
2022-09-22T16:39:05.526Z,14.70
2022-09-22T16:41:34.890Z,14.60
2022-09-22T16:44:03.051Z,14.50
2022-09-22T16:46:31.661Z,14.40
2022-09-22T16:49:00.687Z,14.40
2022-09-22T16:51:28.577Z,14.40
2022-09-22T16:53:55.868Z,14.40
2022-09-22T16:56:31.099Z,14.30
2022-09-22T16:59:01.354Z,14.20
2022-09-22T17:01:29.341Z,14.20
2022-09-22T17:03:56.423Z,14.10
2022-09-22T17:06:26.272Z,14.00
2022-09-22T17:08:57.154Z,14.00
2022-09-22T17:11:34.595Z,13.90
2022-09-22T17:14:06.220Z,13.90
2022-09-22T17:16:43.397Z,13.80
2022-09-22T17:19:18.555Z,13.70
2022-09-22T17:21:48.318Z,13.70
2022-09-22T17:24:16.247Z,13.70
2022-09-22T17:26:47.629Z,13.60
2022-09-22T17:29:21.219Z,13.60
2022-09-22T17:31:48.386Z,13.40
2022-09-22T17:34:15.630Z,13.40
2022-09-22T17:36:43.208Z,13.40
2022-09-22T17:39:10.892Z,13.30
2022-09-22T17:41:45.567Z,13.30
2022-09-22T17:44:13.617Z,13.30
2022-09-22T17:47:00.621Z,13.20
2022-09-22T17:49:46.396Z,13.20
2022-09-22T17:52:34.803Z,13.20
2022-09-22T17:55:07.381Z,13.10
2022-09-22T17:57:42.618Z,13.10
2022-09-22T18:00:12.800Z,13.00
2022-09-22T18:02:39.973Z,13.00
2022-09-22T18:05:10.768Z,13.00
2022-09-22T18:07:40.456Z,12.90
2022-09-22T18:10:09.762Z,12.90
2022-09-22T18:12:37.153Z,12.90
2022-09-22T18:15:05.283Z,12.90
2022-09-22T18:17:41.661Z,12.90
2022-09-22T18:20:12.542Z,12.90
2022-09-22T18:22:40.180Z,12.90
2022-09-22T18:25:09.202Z,12.80
2022-09-22T18:27:36.176Z,12.90
2022-09-22T18:30:05.163Z,12.80
2022-09-22T18:32:33.446Z,12.70
2022-09-22T18:35:00.399Z,12.70
2022-09-22T18:37:27.395Z,12.70
2022-09-22T18:39:54.939Z,12.60
2022-09-22T18:42:24.369Z,12.60
2022-09-22T18:44:52.235Z,12.60
2022-09-22T18:47:21.340Z,12.60
2022-09-22T18:49:51.632Z,12.60
2022-09-22T18:52:26.728Z,12.60
2022-09-22T18:54:54.550Z,12.50
2022-09-22T18:57:24.845Z,12.50
2022-09-22T18:59:51.977Z,12.50
2022-09-22T19:02:23.347Z,12.50
2022-09-22T19:04:54.285Z,12.50
2022-09-22T19:07:44.332Z,12.50
2022-09-22T19:10:18.992Z,12.40
2022-09-22T19:12:46.261Z,12.50
2022-09-22T19:15:16.646Z,12.50
2022-09-22T19:17:46.198Z,12.60
2022-09-22T19:20:24.215Z,12.50
2022-09-22T19:22:52.744Z,12.50
2022-09-22T19:25:29.346Z,12.40
2022-09-22T19:27:56.778Z,12.40
2022-09-22T19:30:27.519Z,12.50
2022-09-22T19:33:01.800Z,12.40
2022-09-22T19:35:34.086Z,12.40
2022-09-22T19:38:05.173Z,12.40
2022-09-22T19:40:34.217Z,12.30
2022-09-22T19:43:02.993Z,12.30
2022-09-22T19:45:30.634Z,12.30
2022-09-22T19:47:58.584Z,12.40
2022-09-22T19:50:26.274Z,12.40
2022-09-22T19:52:53.588Z,12.30
2022-09-22T19:55:21.353Z,12.40
2022-09-22T19:57:48.727Z,12.40
2022-09-22T20:00:17.868Z,12.50
2022-09-22T20:02:45.178Z,12.50
2022-09-22T20:05:20.880Z,12.50
2022-09-22T20:07:48.998Z,12.50
2022-09-22T20:10:17.483Z,12.50
2022-09-22T20:12:44.689Z,12.40
2022-09-22T20:15:15.321Z,12.40
2022-09-22T20:17:46.506Z,12.30
2022-09-22T20:20:19.776Z,12.30
2022-09-22T20:22:48.083Z,12.30
2022-09-22T20:25:25.462Z,12.40
2022-09-22T20:27:52.450Z,12.40
2022-09-22T20:30:19.354Z,12.30
2022-09-22T20:32:46.750Z,12.30
2022-09-22T20:35:15.469Z,12.20
2022-09-22T20:37:42.419Z,12.20
2022-09-22T20:40:21.379Z,12.20
2022-09-22T20:42:50.902Z,12.20
2022-09-22T20:45:23.233Z,12.10
2022-09-22T20:47:50.318Z,12.20
2022-09-22T20:50:17.485Z,12.20
2022-09-22T20:52:44.542Z,12.30
2022-09-22T20:55:11.951Z,12.30
2022-09-22T20:57:40.361Z,12.30
2022-09-22T21:00:08.057Z,12.40
2022-09-22T21:02:35.183Z,12.60
2022-09-22T21:05:02.114Z,12.60
2022-09-22T21:07:31.079Z,12.60
2022-09-22T21:10:16.401Z,12.50
2022-09-22T21:12:44.459Z,12.40
2022-09-22T21:15:11.786Z,12.40
2022-09-22T21:17:43.921Z,12.40
2022-09-22T21:20:11.606Z,12.40
2022-09-22T21:22:38.536Z,12.40
2022-09-22T21:25:05.907Z,12.50
2022-09-22T21:27:32.828Z,12.50
2022-09-22T21:29:59.910Z,12.50
2022-09-22T21:32:26.792Z,12.50
2022-09-22T21:34:53.787Z,12.40
2022-09-22T21:37:23.707Z,12.40
2022-09-22T21:39:50.771Z,12.50
2022-09-22T21:42:17.795Z,12.50
2022-09-22T21:44:46.538Z,12.40
2022-09-22T21:47:13.609Z,12.50
2022-09-22T21:49:41.089Z,12.40
2022-09-22T21:52:08.211Z,12.40
2022-09-22T21:54:35.190Z,12.40
2022-09-22T21:57:02.452Z,12.40
2022-09-22T21:59:29.897Z,12.30
2022-09-22T22:01:56.898Z,12.30
2022-09-22T22:04:24.058Z,12.40
2022-09-22T22:06:52.256Z,12.30
2022-09-22T22:09:21.758Z,12.30
2022-09-22T22:11:51.902Z,12.40
2022-09-22T22:14:20.161Z,12.30
2022-09-22T22:16:50.423Z,12.20
2022-09-22T22:19:22.256Z,12.20
2022-09-22T22:21:50.967Z,12.30
2022-09-22T22:24:23.346Z,12.30
2022-09-22T22:26:58.216Z,12.30
2022-09-22T22:29:26.986Z,12.40
2022-09-22T22:31:54.478Z,12.40
2022-09-22T22:34:25.622Z,12.40
2022-09-22T22:36:53.394Z,12.30
2022-09-22T22:39:20.703Z,12.40
2022-09-22T22:41:48.918Z,12.50
2022-09-22T22:44:17.993Z,12.40
2022-09-22T22:46:45.886Z,12.50
2022-09-22T22:49:13.346Z,12.50
2022-09-22T22:51:43.237Z,12.50
2022-09-22T22:54:11.892Z,12.50
2022-09-22T22:56:42.507Z,12.50
2022-09-22T22:59:11.295Z,12.40
2022-09-22T23:01:38.580Z,12.50
2022-09-22T23:04:07.550Z,12.50
2022-09-22T23:06:37.835Z,12.40
2022-09-22T23:09:06.919Z,12.40
2022-09-22T23:11:37.615Z,12.40
2022-09-22T23:14:07.100Z,12.50
2022-09-22T23:16:38.973Z,12.50
2022-09-22T23:19:08.572Z,12.50
2022-09-22T23:21:37.672Z,12.50
2022-09-22T23:24:05.561Z,12.40
2022-09-22T23:26:32.957Z,12.40
2022-09-22T23:29:04.032Z,12.40
2022-09-22T23:31:31.893Z,12.40
2022-09-22T23:33:59.556Z,12.40
2022-09-22T23:36:28.375Z,12.30
2022-09-22T23:39:04.307Z,12.40
2022-09-22T23:41:33.185Z,12.40
2022-09-22T23:44:00.494Z,12.30
2022-09-22T23:46:28.113Z,12.40
2022-09-22T23:48:55.742Z,12.50
2022-09-22T23:51:23.363Z,12.40
2022-09-22T23:53:51.012Z,12.40
2022-09-22T23:56:18.127Z,12.50
2022-09-22T23:58:46.638Z,12.50
